Decoded Metar for NZWN (WELLINGTON in NEW ZEALAND) (IATA:WLG) | Meteo·Mobile Aviation Weather
aviador You're here:

NZWN Decoded Metar

WELLINGTON in NEW ZEALAND
Report Time2018-08-17 01:00:00
UTC Time2018-08-17 01:29:11
Flight Rules vfr VFR
Wind010° at 12 kt
W.Decomp.*RWY 34: 11.9 kt HW 1.9 kt RCW
W.Rank010° ranks 2
Current wind is below 010° avg. (14.2)
Visibility9999 m
Phenomena:N/A
Clouds:Few 024 Hf
Scattered 100 Hf
Expected CloudBase > 2,400 ft AGL from Temp-Dew spread
CeilingNone
Temp15°C (ISA 0)
Dew Point09°C (68% RH)
AAT10.5°C
QNH0998 hPa
Density Alt696 ft
Elevation23 ft
Report Wrong Elevation
Raw Report
NZWN 170100Z AUTO 01012KT 9999 FEW024 SCT100 15/09 Q0998 NOSIG=

Extra information for NZWN:More info

Metar Taf Metar & Taf Last 4 Metars F.Rules Stats Wind Profile Meteogram Temp Stats Airport Information Weather charts Add Link Nearby VenuesMetar ALERT Operation Metar Decoded Social comments